Time;durP1;ratioP1;P1;durP2;ratioP2;P2;SDS_P1;SDS_P2;PMS_P1;PMS_P2;Temp;Humidity;BMP_temperature;BMP_pressure;BME280_temperature;BME280_humidity;BME280_pressure;Samples;Min_cycle;Max_cycle;Signal;HPM_P1;HPM_P2
2022/04/14 00:01:21;;;;;;;;;;;;;;;13.47;82.52;100282.19;5022471;28;19917;-83
2022/04/14 00:03:46;;;;;;;;;;;;;;;13.57;82.27;100292.34;5025801;28;19928;-83
2022/04/14 00:06:11;;;;;;;;;;;;;;;13.56;82.53;100286.06;5024202;28;19933;-84
2022/04/14 00:08:36;;;;;;;;;;;;;;;13.55;82.63;100287.16;5025615;28;20269;-84
2022/04/14 00:11:01;;;;;;;;;;;;;;;13.59;82.36;100285.50;5024681;28;20216;-84
2022/04/14 00:13:27;;;;;;;;;;;;;;;13.56;82.91;100288.81;5027455;28;19940;-83
2022/04/14 00:15:52;;;;;;;;;;;;;;;13.56;83.24;100286.06;5026285;28;19927;-84
2022/04/14 00:18:17;;;;;;;;;;;;;;;13.42;83.69;100289.28;5024715;28;19918;-83
2022/04/14 00:20:42;;;;;;;;;;;;;;;13.41;83.54;100284.09;5026813;28;19952;-84
2022/04/14 00:25:52;;;;;;;;;;;;;;;13.43;83.66;100287.38;5032266;28;20477;-84
2022/04/14 00:28:17;;;;;;;;;;;;;;;13.29;84.19;100276.97;5025716;28;19960;-84
2022/04/14 00:30:42;;;;;;;;;;;;;;;13.35;84.33;100272.31;5025540;28;19932;-84
2022/04/14 00:33:07;;;;;;;;;;;;;;;13.38;83.99;100271.75;5040942;28;20018;-84
2022/04/14 00:35:33;;;;;;;;;;;;;;;13.34;84.08;100267.94;5045683;28;19927;-84
2022/04/14 00:37:58;;;;;;;;;;;;;;;13.21;84.58;100271.19;5045810;28;19927;-83
2022/04/14 00:40:23;;;;;;;;;;;;;;;13.26;84.27;100266.53;5030485;28;20383;-84
2022/04/14 00:42:48;;;;;;;;;;;;;;;13.19;84.39;100276.94;5026106;28;19943;-84
2022/04/14 00:45:14;;;;;;;;;;;;;;;13.17;84.67;100273.63;5024952;28;20081;-84
2022/04/14 00:47:39;;;;;;;;;;;;;;;13.15;84.53;100260.22;5026302;28;19929;-83
2022/04/14 00:50:05;;;;;;;;;;;;;;;13.14;84.33;100263.25;5024706;28;19928;-83
2022/04/14 00:52:30;;;;;;;;;;;;;;;13.06;85.26;100270.88;5024898;28;19921;-83
2022/04/14 00:54:56;;;;;;;;;;;;;;;13.11;84.70;100267.34;5025930;28;20238;-83
2022/04/14 00:57:21;;;;;;;;;;;;;;;13.11;84.77;100264.59;5023200;28;19983;-83
2022/04/14 00:59:46;;;;;;;;;;;;;;;13.03;85.13;100262.38;5024862;28;19917;-83
2022/04/14 01:02:11;;;;;;;;;;;;;;;12.87;85.57;100256.88;5024332;28;19987;-83
2022/04/14 01:04:37;;;;;;;;;;;;;;;12.86;85.95;100268.06;5026563;28;19921;-83
2022/04/14 01:07:05;;;;;;;;;;;;;;;12.91;85.48;100266.19;5024132;28;19921;-84
2022/04/14 01:09:30;;;;;;;;;;;;;;;12.85;85.85;100259.03;5019813;28;19921;-83
2022/04/14 01:11:56;;;;;;;;;;;;;;;12.91;85.66;100260.72;5020873;28;19921;-83
2022/04/14 01:14:24;;;;;;;;;;;;;;;12.98;85.57;100252.22;5024739;28;19964;-83
2022/04/14 01:16:49;;;;;;;;;;;;;;;12.94;85.60;100251.94;5025279;28;19921;-84
2022/04/14 01:19:14;;;;;;;;;;;;;;;12.94;85.37;100259.31;5024585;28;19928;-83
2022/04/14 01:21:43;;;;;;;;;;;;;;;12.84;85.93;100260.13;5024852;28;20446;-83
2022/04/14 01:24:09;;;;;;;;;;;;;;;12.86;86.07;100255.19;5023870;28;19962;-83
2022/04/14 01:26:36;;;;;;;;;;;;;;;12.89;86.11;100265.63;5025987;28;19921;-83
2022/04/14 01:29:03;;;;;;;;;;;;;;;12.94;85.94;100265.63;5024988;28;20016;-84
2022/04/14 01:31:28;;;;;;;;;;;;;;;13.01;85.37;100261.81;5024990;28;19952;-84
2022/04/14 01:33:53;;;;;;;;;;;;;;;12.92;85.99;100251.41;5025842;28;20453;-83
2022/04/14 01:39:21;;;;;;;;;;;;;;;12.85;86.65;100267.25;5024499;28;20486;-84
2022/04/14 01:41:47;;;;;;;;;;;;;;;12.86;86.03;100266.16;5023308;28;20233;-84
2022/04/14 01:44:12;;;;;;;;;;;;;;;12.91;86.38;100268.91;5025319;28;19944;-84
2022/04/14 01:46:37;;;;;;;;;;;;;;;12.77;86.65;100259.56;5025092;28;19943;-83
2022/04/14 01:49:03;;;;;;;;;;;;;;;12.74;87.02;100266.38;5022183;28;19921;-84
2022/04/14 01:51:29;;;;;;;;;;;;;;;12.80;86.90;100269.94;5023958;28;19929;-83
2022/04/14 01:53:54;;;;;;;;;;;;;;;12.84;86.52;100268.31;5023691;28;19921;-84
2022/04/14 01:56:21;;;;;;;;;;;;;;;12.89;86.63;100271.09;5025334;28;19921;-83
2022/04/14 01:58:46;;;;;;;;;;;;;;;12.90;86.33;100270.00;5024244;28;19928;-83
2022/04/14 02:01:11;;;;;;;;;;;;;;;12.94;85.74;100281.22;5025449;28;19925;-84
2022/04/14 02:03:36;;;;;;;;;;;;;;;12.91;86.14;100288.06;5028868;28;20283;-84
2022/04/14 02:06:02;;;;;;;;;;;;;;;12.92;85.65;100278.75;5027994;28;19917;-83
2022/04/14 02:08:27;;;;;;;;;;;;;;;12.87;85.76;100278.75;5030227;28;19921;-83
2022/04/14 02:10:53;;;;;;;;;;;;;;;12.86;85.93;100273.53;5026908;28;20304;-84
2022/04/14 02:13:18;;;;;;;;;;;;;;;12.60;86.96;100279.72;5029758;28;19928;-84
2022/04/14 02:15:43;;;;;;;;;;;;;;;12.71;86.95;100269.66;5027673;28;19917;-84
2022/04/14 02:18:08;;;;;;;;;;;;;;;12.77;86.49;100275.97;5030019;28;20003;-83
2022/04/14 02:20:33;;;;;;;;;;;;;;;12.82;86.56;100262.31;5027215;28;19921;-82
2022/04/14 02:22:58;;;;;;;;;;;;;;;12.83;86.09;100267.50;5028644;28;19921;-83
2022/04/14 02:25:24;;;;;;;;;;;;;;;12.88;86.00;100249.47;5028990;28;20450;-83
2022/04/14 02:27:49;;;;;;;;;;;;;;;12.92;85.91;100256.88;5027608;28;19944;-83
2022/04/14 02:30:14;;;;;;;;;;;;;;;12.95;85.67;100256.34;5029290;28;20384;-83
2022/04/14 02:32:39;;;;;;;;;;;;;;;12.98;85.75;100265.91;5039289;28;20113;-83
2022/04/14 02:35:05;;;;;;;;;;;;;;;12.99;85.88;100259.38;5048583;28;19920;-83
2022/04/14 02:37:30;;;;;;;;;;;;;;;12.95;85.87;100261.81;5046618;28;19917;-83
2022/04/14 02:39:55;;;;;;;;;;;;;;;12.90;86.34;100259.06;5029941;28;19925;-84
2022/04/14 02:42:21;;;;;;;;;;;;;;;12.99;85.73;100264.00;5027176;28;19925;-83
2022/04/14 02:44:46;;;;;;;;;;;;;;;13.02;85.50;100268.94;5027839;28;19951;-84
2022/04/14 02:47:11;;;;;;;;;;;;;;;13.03;85.55;100278.81;5028412;28;19931;-84
2022/04/14 02:49:36;;;;;;;;;;;;;;;12.83;86.56;100272.97;5027068;28;19967;-83
2022/04/14 02:52:01;;;;;;;;;;;;;;;12.94;85.94;100273.84;5028494;28;20395;-84
2022/04/14 02:54:27;;;;;;;;;;;;;;;12.91;86.24;100263.44;5026143;28;19921;-84
2022/04/14 02:56:52;;;;;;;;;;;;;;;12.97;85.79;100258.81;5028297;28;20689;-84
2022/04/14 02:59:17;;;;;;;;;;;;;;;12.89;86.21;100251.94;5026953;28;19917;-83
2022/04/14 03:01:42;;;;;;;;;;;;;;;12.79;86.74;100257.38;5027263;28;20537;-83
2022/04/14 03:04:08;;;;;;;;;;;;;;;12.82;86.71;100263.13;5027747;28;19924;-83
2022/04/14 03:06:33;;;;;;;;;;;;;;;12.88;86.27;100265.88;5025797;28;20050;-84
2022/04/14 03:08:58;;;;;;;;;;;;;;;12.91;86.34;100254.41;5028180;28;19921;-84
2022/04/14 03:11:23;;;;;;;;;;;;;;;12.90;86.46;100259.06;5026209;28;20372;-84
2022/04/14 03:13:48;;;;;;;;;;;;;;;12.87;86.30;100259.59;5027379;28;20011;-83
2022/04/14 03:16:13;;;;;;;;;;;;;;;12.84;85.97;100251.91;5025622;28;19939;-84
2022/04/14 03:18:39;;;;;;;;;;;;;;;12.80;86.13;100264.47;5028323;28;19947;-84
2022/04/14 03:21:04;;;;;;;;;;;;;;;12.77;86.65;100249.44;5026556;28;19952;-84
2022/04/14 03:23:42;;;;;;;;;;;;;;;12.82;86.80;100234.94;5025866;28;20102;-84
2022/04/14 03:26:08;;;;;;;;;;;;;;;12.74;86.63;100241.75;5028452;28;19917;-83
2022/04/14 03:28:33;;;;;;;;;;;;;;;12.81;86.97;100253.25;5025831;28;19928;-84
2022/04/14 03:30:58;;;;;;;;;;;;;;;12.83;86.38;100263.97;5025755;28;19932;-86
2022/04/14 03:33:24;;;;;;;;;;;;;;;12.82;86.76;100273.25;5025782;28;19921;-84
2022/04/14 03:35:49;;;;;;;;;;;;;;;12.83;86.69;100269.44;5027600;28;19929;-83
2022/04/14 03:38:14;;;;;;;;;;;;;;;12.85;86.30;100267.25;5026934;28;19971;-84
2022/04/14 03:40:39;;;;;;;;;;;;;;;12.59;87.52;100259.75;5033959;28;20403;-84
2022/04/14 03:43:05;;;;;;;;;;;;;;;12.51;88.22;100256.72;5027220;28;19975;-84
2022/04/14 03:45:30;;;;;;;;;;;;;;;12.40;88.60;100255.81;5025859;28;19960;-83
2022/04/14 03:47:55;;;;;;;;;;;;;;;12.47;88.35;100249.03;5026773;28;19936;-84
2022/04/14 03:50:20;;;;;;;;;;;;;;;12.66;87.41;100254.03;5025540;28;20020;-84
2022/04/14 03:52:45;;;;;;;;;;;;;;;12.43;88.20;100250.63;5027779;28;19928;-84
2022/04/14 03:55:11;;;;;;;;;;;;;;;12.49;87.87;100246.84;5025649;28;20023;-84
2022/04/14 03:57:36;;;;;;;;;;;;;;;12.47;88.18;100246.28;5027670;28;19953;-83
2022/04/14 04:00:01;;;;;;;;;;;;;;;12.49;87.41;100252.31;5026130;28;19921;-83
2022/04/14 04:02:26;;;;;;;;;;;;;;;12.49;88.10;100255.06;5026101;28;19913;-83
2022/04/14 04:04:52;;;;;;;;;;;;;;;12.46;87.79;100261.06;5025941;28;20439;-84
2022/04/14 04:07:17;;;;;;;;;;;;;;;12.56;87.37;100264.94;5025174;28;20012;-82
2022/04/14 04:09:42;;;;;;;;;;;;;;;12.64;87.37;100256.22;5032483;28;19928;-84
2022/04/14 04:12:07;;;;;;;;;;;;;;;12.69;86.92;100252.69;5027748;28;19921;-84
2022/04/14 04:14:33;;;;;;;;;;;;;;;12.70;86.86;100252.41;5025911;28;19923;-83
2022/04/14 04:16:58;;;;;;;;;;;;;;;12.69;86.78;100237.06;5025888;28;19928;-83
2022/04/14 04:19:23;;;;;;;;;;;;;;;12.71;86.62;100243.09;5027076;28;20008;-83
2022/04/14 04:21:48;;;;;;;;;;;;;;;12.57;86.91;100236.50;5026852;28;20381;-83
2022/04/14 04:24:13;;;;;;;;;;;;;;;12.55;86.86;100241.41;5025165;28;20067;-83
2022/04/14 04:26:39;;;;;;;;;;;;;;;12.48;86.82;100237.00;5026018;28;19925;-82
2022/04/14 04:29:04;;;;;;;;;;;;;;;12.51;87.36;100260.25;5025285;28;19926;-83
2022/04/14 04:31:29;;;;;;;;;;;;;;;12.48;87.29;100258.88;5017897;28;19921;-83
2022/04/14 04:33:54;;;;;;;;;;;;;;;12.58;86.93;100265.47;5023661;28;20342;-83
2022/04/14 04:36:20;;;;;;;;;;;;;;;12.44;87.95;100278.81;5026841;28;20170;-83
2022/04/14 04:38:45;;;;;;;;;;;;;;;12.45;87.38;100286.75;5025290;28;19925;-84
2022/04/14 04:41:10;;;;;;;;;;;;;;;12.48;87.43;100274.47;5041201;28;19952;-83
2022/04/14 04:43:35;;;;;;;;;;;;;;;12.46;87.59;100282.94;5046488;28;19928;-82
2022/04/14 04:46:00;;;;;;;;;;;;;;;12.51;87.07;100278.59;5043877;28;19917;-84
2022/04/14 04:48:26;;;;;;;;;;;;;;;12.43;87.29;100294.38;5046088;28;20409;-84
2022/04/14 04:50:51;;;;;;;;;;;;;;;12.39;87.79;100301.47;5037059;28;20076;-83
2022/04/14 04:53:16;;;;;;;;;;;;;;;12.37;87.79;100295.44;5026294;28;20674;-83
2022/04/14 04:55:42;;;;;;;;;;;;;;;12.24;88.46;100297.53;5025096;28;20422;-83
2022/04/14 04:58:07;;;;;;;;;;;;;;;12.41;88.46;100296.56;5025941;28;19925;-83
2022/04/14 05:00:32;;;;;;;;;;;;;;;12.36;88.41;100302.00;5025015;28;19929;-83
2022/04/14 05:02:58;;;;;;;;;;;;;;;12.11;89.94;100311.69;5024374;28;20324;-83
2022/04/14 05:05:24;;;;;;;;;;;;;;;12.08;90.19;100303.97;5025935;28;20349;-82
2022/04/14 05:07:49;;;;;;;;;;;;;;;12.09;90.02;100305.63;5024156;28;19970;-83
2022/04/14 05:10:14;;;;;;;;;;;;;;;12.13;89.85;100312.25;5025442;28;19967;-84
2022/04/14 05:12:39;;;;;;;;;;;;;;;11.94;90.83;100315.34;5024276;28;20416;-83
2022/04/14 05:15:05;;;;;;;;;;;;;;;12.14;89.95;100316.63;5025666;28;19925;-84
2022/04/14 05:17:30;;;;;;;;;;;;;;;12.18;89.50;100316.94;5024413;28;19956;-83
2022/04/14 05:19:55;;;;;;;;;;;;;;;12.42;88.37;100319.28;5025244;28;19979;-81
2022/04/14 05:22:20;;;;;;;;;;;;;;;12.53;87.65;100325.63;5025219;28;19921;-83
2022/04/14 05:24:45;;;;;;;;;;;;;;;12.51;87.28;100333.28;5023836;28;19924;-84
2022/04/14 05:29:55;;;;;;;;;;;;;;;12.32;88.60;100344.63;5023071;28;19927;-84
2022/04/14 05:32:21;;;;;;;;;;;;;;;12.47;88.21;100333.78;5025656;28;20487;-83
2022/04/14 05:34:46;;;;;;;;;;;;;;;12.62;87.86;100340.47;5024697;28;20039;-83
2022/04/14 05:37:11;;;;;;;;;;;;;;;12.51;88.23;100349.69;5024348;28;19924;-84
2022/04/14 05:39:36;;;;;;;;;;;;;;;12.52;88.19;100351.31;5029164;28;19921;-83
2022/04/14 05:42:02;;;;;;;;;;;;;;;12.62;88.09;100354.13;5026039;28;20398;-83
2022/04/14 05:44:27;;;;;;;;;;;;;;;12.69;87.49;100351.97;5024833;28;20067;-83
2022/04/14 05:46:53;;;;;;;;;;;;;;;12.61;87.78;100344.25;5021312;28;20016;-81
2022/04/14 05:49:18;;;;;;;;;;;;;;;12.68;87.57;100342.13;5025534;28;20296;-82
2022/04/14 05:51:43;;;;;;;;;;;;;;;12.64;88.01;100348.38;5022868;28;20307;-83
2022/04/14 05:54:09;;;;;;;;;;;;;;;12.54;87.87;100349.97;5024904;28;19929;-83
2022/04/14 05:56:47;;;;;;;;;;;;;;;12.72;87.59;100346.00;5024966;28;20418;-83
2022/04/14 05:59:16;;;;;;;;;;;;;;;12.72;87.60;100350.63;5023328;28;19921;-82
2022/04/14 06:01:45;;;;;;;;;;;;;;;12.80;86.99;100347.41;5024705;28;19982;-83
2022/04/14 06:04:11;;;;;;;;;;;;;;;12.75;87.34;100346.53;5023503;28;19932;-83
2022/04/14 06:06:36;;;;;;;;;;;;;;;12.77;87.17;100349.84;5023414;28;19917;-83
2022/04/14 06:09:01;;;;;;;;;;;;;;;12.73;87.26;100350.34;5024062;28;19917;-83
2022/04/14 06:11:28;;;;;;;;;;;;;;;12.81;87.56;100353.69;5023906;28;19921;-83
2022/04/14 06:13:53;;;;;;;;;;;;;;;12.71;87.67;100360.75;5024578;28;19917;-82
2022/04/14 06:16:18;;;;;;;;;;;;;;;12.88;86.98;100365.22;5023789;28;19928;-82
2022/04/14 06:18:43;;;;;;;;;;;;;;;12.95;86.90;100359.50;5024808;28;20004;-83
2022/04/14 06:21:08;;;;;;;;;;;;;;;12.87;87.20;100358.09;5022718;28;20232;-82
2022/04/14 06:23:34;;;;;;;;;;;;;;;12.95;86.62;100365.81;5023145;28;19956;-83
2022/04/14 06:25:59;;;;;;;;;;;;;;;13.09;85.78;100354.38;5022975;28;19928;-84
2022/04/14 06:28:24;;;;;;;;;;;;;;;13.11;85.68;100363.13;5023149;28;19925;-83
2022/04/14 06:30:51;;;;;;;;;;;;;;;13.09;85.78;100359.84;5023605;28;19921;-83
2022/04/14 06:33:17;;;;;;;;;;;;;;;13.05;86.35;100361.47;5022761;28;19917;-82
2022/04/14 06:35:42;;;;;;;;;;;;;;;13.15;86.01;100358.78;5024467;28;20115;-83
2022/04/14 06:38:07;;;;;;;;;;;;;;;13.08;86.50;100360.91;5022840;28;19964;-82
2022/04/14 06:40:32;;;;;;;;;;;;;;;13.17;85.96;100356.59;5031269;28;20534;-83
2022/04/14 06:42:59;;;;;;;;;;;;;;;13.22;85.82;100353.03;5022543;28;19917;-83
2022/04/14 06:45:24;;;;;;;;;;;;;;;13.23;86.09;100360.19;5024784;28;19917;-83
2022/04/14 06:47:49;;;;;;;;;;;;;;;13.26;85.95;100359.63;5022949;28;19932;-84
2022/04/14 06:50:14;;;;;;;;;;;;;;;13.26;86.05;100354.16;5026860;28;19979;-83
2022/04/14 06:52:40;;;;;;;;;;;;;;;13.35;86.10;100354.47;5028550;28;19921;-83
2022/04/14 06:55:06;;;;;;;;;;;;;;;13.34;85.66;100355.56;5027047;28;20312;-84
2022/04/14 06:57:31;;;;;;;;;;;;;;;13.40;85.59;100359.94;5028564;28;19921;-83
2022/04/14 06:59:56;;;;;;;;;;;;;;;13.57;85.36;100361.66;5024593;28;19944;-84
2022/04/14 07:02:22;;;;;;;;;;;;;;;13.57;85.18;100369.06;5027492;28;19921;-83
2022/04/14 07:04:47;;;;;;;;;;;;;;;13.61;85.22;100378.38;5026075;28;20035;-83
2022/04/14 07:07:13;;;;;;;;;;;;;;;13.72;84.90;100371.00;5027509;28;19992;-83
2022/04/14 07:09:38;;;;;;;;;;;;;;;13.71;84.67;100372.94;5026442;28;20359;-84
2022/04/14 07:12:04;;;;;;;;;;;;;;;13.76;84.60;100374.84;5025614;28;19917;-83
2022/04/14 07:17:16;;;;;;;;;;;;;;;13.78;84.85;100380.91;5024597;28;19928;-84
2022/04/14 07:19:41;;;;;;;;;;;;;;;13.86;84.19;100372.13;5027791;28;19917;-83
2022/04/14 07:22:06;;;;;;;;;;;;;;;13.91;83.50;100373.25;5025427;28;20407;-85
2022/04/14 07:24:32;;;;;;;;;;;;;;;13.74;83.67;100375.13;5027804;28;19967;-82
2022/04/14 07:26:57;;;;;;;;;;;;;;;13.89;84.02;100371.59;5027064;28;20396;-83
2022/04/14 07:29:22;;;;;;;;;;;;;;;13.94;83.80;100372.69;5026457;28;20293;-84
2022/04/14 07:31:49;;;;;;;;;;;;;;;13.88;83.70;100375.44;5027069;28;19937;-83
2022/04/14 07:34:14;;;;;;;;;;;;;;;13.89;84.00;100377.06;5025873;28;20003;-83
2022/04/14 07:36:40;;;;;;;;;;;;;;;13.95;84.15;100379.81;5028187;28;20004;-83
2022/04/14 07:39:05;;;;;;;;;;;;;;;13.96;83.90;100381.47;5025876;28;19948;-84
2022/04/14 07:41:31;;;;;;;;;;;;;;;13.83;83.67;100389.13;5027063;28;19921;-81
2022/04/14 07:43:56;;;;;;;;;;;;;;;13.83;83.68;100389.13;5026757;28;19921;-83
2022/04/14 07:46:21;;;;;;;;;;;;;;;13.81;84.13;100393.25;5026748;28;20109;-81
2022/04/14 07:48:46;;;;;;;;;;;;;;;13.86;83.64;100391.31;5024550;28;19928;-83
2022/04/14 07:51:12;;;;;;;;;;;;;;;13.82;83.83;100392.97;5023553;28;19925;-83
2022/04/14 07:53:37;;;;;;;;;;;;;;;13.82;83.92;100398.44;5026947;28;20367;-83
2022/04/14 07:56:04;;;;;;;;;;;;;;;13.81;83.41;100391.28;5025238;28;20374;-83
2022/04/14 07:58:29;;;;;;;;;;;;;;;13.80;83.73;100395.16;5027201;28;19944;-82
2022/04/14 08:00:55;;;;;;;;;;;;;;;13.77;84.39;100401.16;5025171;28;19968;-83
2022/04/14 08:03:21;;;;;;;;;;;;;;;13.74;84.05;100398.97;5027586;28;20373;-83
2022/04/14 08:05:46;;;;;;;;;;;;;;;13.79;84.44;100396.22;5024864;28;19968;-83
2022/04/14 08:08:28;;;;;;;;;;;;;;;13.78;84.17;100397.34;5025591;28;19921;-84
2022/04/14 08:10:53;;;;;;;;;;;;;;;13.74;84.56;100397.06;5027068;28;20396;-82
2022/04/14 08:13:18;;;;;;;;;;;;;;;13.91;84.27;100397.91;5025533;28;19925;-83
2022/04/14 08:15:44;;;;;;;;;;;;;;;13.83;84.27;100404.75;5026774;28;20013;-83
2022/04/14 08:18:09;;;;;;;;;;;;;;;13.94;83.86;100395.44;5022408;28;20366;-84
2022/04/14 08:20:35;;;;;;;;;;;;;;;14.01;83.82;100389.69;5026039;28;20012;-83
2022/04/14 08:23:01;;;;;;;;;;;;;;;14.12;83.09;100388.59;5027934;28;19925;-83
2022/04/14 08:25:26;;;;;;;;;;;;;;;14.23;83.11;100385.88;5027148;28;20506;-82
2022/04/14 08:27:52;;;;;;;;;;;;;;;14.27;82.75;100389.72;5026628;28;19917;-83
2022/04/14 08:30:18;;;;;;;;;;;;;;;14.34;82.04;100392.16;5023648;28;19971;-83
2022/04/14 08:32:44;;;;;;;;;;;;;;;14.14;82.88;100382.84;5026333;28;19921;-82
2022/04/14 08:35:11;;;;;;;;;;;;;;;14.20;82.97;100386.41;5024535;28;19921;-83
2022/04/14 08:37:37;;;;;;;;;;;;;;;14.17;82.18;100392.44;5006440;28;20404;-83
2022/04/14 08:40:05;;;;;;;;;;;;;;;14.33;82.80;100391.34;5032909;28;19925;-83
2022/04/14 08:42:40;;;;;;;;;;;;;;;14.60;82.04;100394.91;5025407;28;19957;-83
2022/04/14 08:45:08;;;;;;;;;;;;;;;14.88;81.55;100394.59;5024439;28;20239;-83
2022/04/14 08:47:34;;;;;;;;;;;;;;;14.87;80.29;100399.25;5023358;28;19964;-82
2022/04/14 08:50:00;;;;;;;;;;;;;;;14.84;80.09;100388.00;5025937;28;19928;-83
2022/04/14 08:52:25;;;;;;;;;;;;;;;15.02;79.24;100389.34;5023440;28;19925;-83
2022/04/14 08:54:52;;;;;;;;;;;;;;;14.90;78.50;100389.66;5025320;28;20370;-82
2022/04/14 08:57:17;;;;;;;;;;;;;;;15.02;78.87;100387.41;5024748;28;19917;-81
2022/04/14 08:59:45;;;;;;;;;;;;;;;15.11;77.99;100387.63;5025279;28;20257;-83
2022/04/14 09:02:17;;;;;;;;;;;;;;;15.27;77.73;100395.84;5025256;28;19951;-84
2022/04/14 09:04:43;;;;;;;;;;;;;;;15.43;76.97;100391.09;5022824;28;20252;-83
2022/04/14 09:07:08;;;;;;;;;;;;;;;15.39;76.63;100392.75;5027778;28;19960;-85
2022/04/14 09:09:34;;;;;;;;;;;;;;;15.33;76.23;100388.41;5022574;28;20404;-84
2022/04/14 09:11:59;;;;;;;;;;;;;;;15.33;76.31;100388.41;5024340;28;19947;-84
2022/04/14 09:14:38;;;;;;;;;;;;;;;15.23;75.72;100384.59;5015123;28;19968;-81
2022/04/14 09:17:03;;;;;;;;;;;;;;;15.29;75.94;100394.44;5027324;28;19960;-81
2022/04/14 09:19:30;;;;;;;;;;;;;;;15.31;74.62;100394.19;5028360;28;19921;-83
2022/04/14 09:21:56;;;;;;;;;;;;;;;15.33;73.88;100394.72;5023370;28;19971;-83
2022/04/14 09:24:37;;;;;;;;;;;;;;;15.54;73.54;100393.78;5017392;28;20141;-83
2022/04/14 09:27:02;;;;;;;;;;;;;;;15.58;72.27;100384.69;5003509;28;20329;-83
2022/04/14 09:29:28;;;;;;;;;;;;;;;15.82;72.44;100381.25;5005868;28;19928;-84
2022/04/14 09:31:54;;;;;;;;;;;;;;;16.04;72.14;100380.03;5018372;28;20497;-83
2022/04/14 09:34:38;;;;;;;;;;;;;;;16.05;71.10;100378.09;5024594;28;19983;-82
2022/04/14 09:37:09;;;;;;;;;;;;;;;16.19;69.63;100375.53;5025165;28;19947;-83
2022/04/14 09:39:50;;;;;;;;;;;;;;;16.24;69.17;100383.72;5025905;28;19921;-83
2022/04/14 09:42:16;;;;;;;;;;;;;;;16.26;67.55;100364.16;5025158;28;19967;-83
2022/04/14 09:44:41;;;;;;;;;;;;;;;16.36;68.26;100375.09;5019274;28;19922;-84
2022/04/14 09:47:06;;;;;;;;;;;;;;;16.40;66.86;100376.16;5004484;28;19925;-83
2022/04/14 09:49:31;;;;;;;;;;;;;;;16.42;66.39;100373.94;5005538;28;19960;-83
2022/04/14 09:51:56;;;;;;;;;;;;;;;16.57;66.08;100375.72;5007572;28;19921;-83
2022/04/14 09:54:28;;;;;;;;;;;;;;;16.73;66.46;100372.81;5007080;28;20001;-83
2022/04/14 09:56:54;;;;;;;;;;;;;;;16.76;65.36;100368.66;5024236;28;19971;-84
2022/04/14 09:59:21;;;;;;;;;;;;;;;16.83;64.98;100373.78;5025794;28;19956;-82
2022/04/14 10:01:47;;;;;;;;;;;;;;;17.01;65.01;100370.28;5022278;28;19925;-82
2022/04/14 10:04:27;;;;;;;;;;;;;;;17.13;64.85;100364.38;5023156;28;19943;-83
2022/04/14 10:07:21;;;;;;;;;;;;;;;17.10;63.98;100364.13;5025416;28;19921;-84
2022/04/14 10:09:50;;;;;;;;;;;;;;;17.19;61.56;100365.13;4998772;28;19984;-82
2022/04/14 10:12:15;;;;;;;;;;;;;;;17.27;62.53;100366.41;5022970;28;19933;-83
2022/04/14 10:14:41;;;;;;;;;;;;;;;17.24;62.07;100364.25;5023831;28;19928;-83
2022/04/14 10:17:07;;;;;;;;;;;;;;;17.42;61.63;100361.81;5024672;28;19917;-83
2022/04/14 10:19:33;;;;;;;;;;;;;;;17.65;61.46;100356.53;5024695;28;19987;-83
2022/04/14 10:21:58;;;;;;;;;;;;;;;17.70;60.55;100349.00;5005170;28;20335;-84
2022/04/14 10:24:25;;;;;;;;;;;;;;;17.65;60.24;100340.81;5008705;28;20039;-83
2022/04/14 10:26:52;;;;;;;;;;;;;;;17.76;60.11;100341.47;5007495;28;20359;-83
2022/04/14 10:29:18;;;;;;;;;;;;;;;18.07;60.58;100343.75;5009144;28;20419;-81
2022/04/14 10:31:43;;;;;;;;;;;;;;;18.14;59.09;100342.53;5020638;28;19921;-83
2022/04/14 10:34:09;;;;;;;;;;;;;;;18.26;59.68;100342.91;5027483;28;19931;-83
2022/04/14 10:36:38;;;;;;;;;;;;;;;18.15;58.92;100353.28;5028016;28;19917;-83
2022/04/14 10:39:04;;;;;;;;;;;;;;;17.87;59.81;100339.38;5027252;28;19921;-84
2022/04/14 10:41:32;;;;;;;;;;;;;;;17.70;60.39;100345.41;5025013;28;19931;-83
2022/04/14 10:44:01;;;;;;;;;;;;;;;17.91;60.17;100342.34;5007076;28;19925;-83
2022/04/14 10:46:36;;;;;;;;;;;;;;;18.02;59.40;100348.53;5008018;28;19917;-82
2022/04/14 10:49:22;;;;;;;;;;;;;;;17.83;59.54;100338.34;5006381;28;19925;-84
2022/04/14 10:51:47;;;;;;;;;;;;;;;17.89;59.24;100339.91;5021797;28;20613;-83
2022/04/14 10:54:15;;;;;;;;;;;;;;;18.00;59.91;100340.53;5024518;28;19926;-81
2022/04/14 10:56:40;;;;;;;;;;;;;;;17.98;59.25;100331.75;5006786;28;20004;-82
2022/04/14 10:59:11;;;;;;;;;;;;;;;18.15;58.85;100325.69;5008622;28;20012;-84
2022/04/14 11:01:45;;;;;;;;;;;;;;;18.33;58.22;100330.66;5019113;28;19932;-82
2022/04/14 11:04:19;;;;;;;;;;;;;;;18.38;57.67;100325.03;5028255;28;20003;-84
2022/04/14 11:06:44;;;;;;;;;;;;;;;18.65;57.48;100320.69;5027638;28;19956;-84
2022/04/14 11:09:28;;;;;;;;;;;;;;;18.54;56.79;100309.84;5027174;28;20339;-82
2022/04/14 11:12:00;;;;;;;;;;;;;;;18.64;57.11;100307.97;5027344;28;19925;-81
2022/04/14 11:14:25;;;;;;;;;;;;;;;18.39;57.29;100313.69;5026137;28;20487;-81
2022/04/14 11:16:50;;;;;;;;;;;;;;;18.24;57.54;100312.03;5027523;28;19921;-81
2022/04/14 11:19:19;;;;;;;;;;;;;;;17.89;58.57;100312.31;5026714;28;19921;-83
2022/04/14 11:22:00;;;;;;;;;;;;;;;17.66;58.25;100314.06;5026767;28;19925;-82
2022/04/14 11:24:40;;;;;;;;;;;;;;;17.72;57.27;100319.19;5043143;28;19959;-83
2022/04/14 11:27:09;;;;;;;;;;;;;;;17.96;58.38;100320.19;5026080;28;20016;-82
2022/04/14 11:29:34;;;;;;;;;;;;;;;18.18;58.10;100324.28;5027748;28;19952;-82
2022/04/14 11:32:14;;;;;;;;;;;;;;;18.58;57.92;100315.56;5025883;28;19929;-83
2022/04/14 11:34:40;;;;;;;;;;;;;;;18.52;56.10;100323.13;5026667;28;19928;-81
2022/04/14 11:37:24;;;;;;;;;;;;;;;18.65;56.70;100315.16;5027645;28;19925;-83
2022/04/14 11:40:09;;;;;;;;;;;;;;;18.42;56.40;100320.53;5025765;28;19917;-83
2022/04/14 11:42:35;;;;;;;;;;;;;;;18.13;57.24;100327.09;5027139;28;19921;-82
2022/04/14 11:45:00;;;;;;;;;;;;;;;17.97;57.21;100327.34;5026440;28;20175;-82
2022/04/14 11:47:26;;;;;;;;;;;;;;;17.72;56.69;100340.44;5026498;28;20008;-81
2022/04/14 11:49:54;;;;;;;;;;;;;;;17.69;56.00;100352.06;5013162;28;22003;-84
2022/04/14 11:52:20;;;;;;;;;;;;;;;17.53;54.88;100352.31;5022929;28;19929;-81
2022/04/14 11:54:46;;;;;;;;;;;;;;;17.51;55.31;100354.53;5012115;28;20392;-82
2022/04/14 11:57:13;;;;;;;;;;;;;;;17.54;56.54;100345.66;5005324;28;20338;-82
2022/04/14 11:59:42;;;;;;;;;;;;;;;17.50;56.42;100350.94;5007252;28;20007;-81
2022/04/14 12:02:08;;;;;;;;;;;;;;;17.94;55.67;100342.56;5031833;28;19979;-82
2022/04/14 12:04:35;;;;;;;;;;;;;;;18.38;53.89;100333.31;5047041;28;19967;-81
2022/04/14 12:07:00;;;;;;;;;;;;;;;18.74;54.20;100329.88;5046123;28;20460;-83
2022/04/14 12:09:25;;;;;;;;;;;;;;;18.97;53.90;100313.41;5045732;28;19913;-83
2022/04/14 12:11:51;;;;;;;;;;;;;;;19.20;53.00;100319.00;5031666;28;19925;-83
2022/04/14 12:14:16;;;;;;;;;;;;;;;19.33;52.25;100311.81;5025724;28;20013;-83
2022/04/14 12:16:48;;;;;;;;;;;;;;;19.42;51.17;100317.44;5026689;28;20374;-83
2022/04/14 12:19:14;;;;;;;;;;;;;;;19.62;50.86;100315.31;5025191;28;19928;-82
2022/04/14 12:21:39;;;;;;;;;;;;;;;19.69;50.37;100323.16;5026447;28;19925;-81
2022/04/14 12:24:04;;;;;;;;;;;;;;;19.54;50.76;100327.13;5025240;28;19921;-84
2022/04/14 12:26:30;;;;;;;;;;;;;;;19.38;51.10;100324.72;5026357;28;19917;-83
2022/04/14 12:28:55;;;;;;;;;;;;;;;18.99;51.99;100315.84;5025066;28;19925;-84
2022/04/14 12:31:25;;;;;;;;;;;;;;;18.82;52.81;100322.00;5019816;28;19995;-83
2022/04/14 12:33:54;;;;;;;;;;;;;;;18.92;51.52;100318.19;5022650;28;20388;-83
2022/04/14 12:36:19;;;;;;;;;;;;;;;19.41;50.46;100310.25;5004263;28;19921;-84
2022/04/14 12:38:48;;;;;;;;;;;;;;;19.10;51.30;100320.03;5023754;28;19994;-83
2022/04/14 12:41:17;;;;;;;;;;;;;;;18.92;51.73;100330.06;5030732;28;19935;-84
2022/04/14 12:43:45;;;;;;;;;;;;;;;18.88;52.21;100320.75;5025287;28;19921;-83